Time,TemperatureF,DewpointF,PressureIn,WindDirection,WindDirectionDegrees,WindSpeedMPH,WindSpeedGustMPH,Humidity,HourlyPrecipIn,Conditions,Clouds,dailyrainin,SolarRadiationWatts/m^2,SoftwareType,DateUTC
2013-08-31 00:00:00,69.0,68.0,28.17,NNE,20,1.0,-999.0,96,-99.99,,,-99.99,0.060000,,2013-08-31 05:00:00,
2013-08-31 00:53:00,69.0,68.0,28.17,NNE,20,1.0,-999.0,96,-99.99,,,-99.99,0.060000,,2013-08-31 05:53:00,
2013-08-31 05:00:00,67.0,66.0,28.28,NE,50,2.0,-999.0,96,-99.99,,,-99.99,0.120000,,2013-08-31 10:00:00,
2013-08-31 05:53:00,67.0,66.0,28.28,NE,50,2.0,-999.0,96,-99.99,,,-99.99,0.120000,,2013-08-31 10:53:00,
2013-08-31 08:00:00,73.0,71.0,27.50,NNE,25,1.0,-999.0,95,-99.99,,,-99.99,136.300003,,2013-08-31 13:00:00,
2013-08-31 08:52:00,73.0,71.0,27.50,NNE,25,1.0,-999.0,95,-99.99,,,-99.99,136.300003,,2013-08-31 13:52:00,
2013-08-31 09:00:00,79.0,73.0,29.55,NNE,20,1.0,-999.0,82,-99.99,,,-99.99,320.000000,,2013-08-31 14:00:00,
2013-08-31 09:52:00,79.0,73.0,29.55,NNE,20,1.0,-999.0,82,-99.99,,,-99.99,320.000000,,2013-08-31 14:52:00,
2013-08-31 12:00:00,88.0,74.0,29.84,WNW,301,2.0,-999.0,62,-99.99,,,-99.99,771.000000,,2013-08-31 17:00:00,
2013-08-31 12:53:00,88.0,74.0,29.84,WNW,301,2.0,-999.0,62,-99.99,,,-99.99,771.000000,,2013-08-31 17:53:00,
2013-08-31 17:00:00,90.0,67.0,29.34,SW,229,6.0,-999.0,48,-99.99,,,-99.99,443.700012,,2013-08-31 22:00:00,
2013-08-31 17:53:00,90.0,67.0,29.34,SW,229,6.0,-999.0,48,-99.99,,,-99.99,443.700012,,2013-08-31 22:53:00,
2013-08-31 19:00:00,79.0,72.0,28.98,South,182,3.0,-999.0,78,-99.99,,,-99.99,46.389999,,2013-09-01 00:00:00,
2013-08-31 19:52:00,79.0,72.0,28.98,South,182,3.0,-999.0,78,-99.99,,,-99.99,46.389999,,2013-09-01 00:52:00,
2013-08-31 20:00:00,77.0,72.0,29.25,SSW,203,1.0,-999.0,86,-99.99,,,-99.99,1.530000,,2013-09-01 01:00:00,
2013-08-31 20:52:00,77.0,72.0,29.25,SSW,203,1.0,-999.0,86,-99.99,,,-99.99,1.530000,,2013-09-01 01:52:00,
2013-08-31 21:00:00,73.0,71.0,28.09,NE,40,2.0,-999.0,93,-99.99,,,-99.99,0.000000,,2013-09-01 02:00:00,
2013-08-31 21:53:00,73.0,71.0,28.09,NE,40,2.0,-999.0,93,-99.99,,,-99.99,0.000000,,2013-09-01 02:53:00,
2013-08-31 22:00:00,-999.0,-99.9,28.00,ESE,111,1.0,-999.0,-999,-99.99,,,-99.99,,,2013-09-01 03:00:00,
2013-08-31 22:54:00,73.0,71.0,28.00,ESE,111,1.0,-999.0,93,-99.99,,,-99.99,0.000000,,2013-09-01 03:54:00,